createdAt,value
2019-05-07T00:00:03.321Z,7.7
2019-05-07T00:05:02.617Z,7.7
2019-05-07T00:10:03.321Z,7.7
2019-05-07T00:15:04.509Z,7.6
2019-05-07T00:20:07.633Z,7.3
2019-05-07T00:25:03.079Z,7.3
2019-05-07T00:30:03.333Z,7.2
2019-05-07T00:35:02.543Z,7.2
2019-05-07T00:40:05.890Z,7.1
2019-05-07T00:45:13.898Z,7.1
2019-05-07T00:50:03.272Z,7.1
2019-05-07T00:55:02.899Z,7.1
2019-05-07T01:00:02.250Z,7.1
2019-05-07T01:05:03.095Z,7.1
2019-05-07T01:10:04.419Z,7
2019-05-07T01:15:03.006Z,6.9
2019-05-07T01:20:04.605Z,6.9
2019-05-07T01:25:02.246Z,6.9
2019-05-07T01:30:04.818Z,6.8
2019-05-07T01:35:02.431Z,6.8
2019-05-07T01:40:03.006Z,6.7
2019-05-07T01:45:02.258Z,6.7
2019-05-07T01:50:18.302Z,6.6
2019-05-07T01:55:03.160Z,6.6
2019-05-07T02:00:02.528Z,6.7
2019-05-07T02:05:03.145Z,6.7
2019-05-07T02:10:02.777Z,6.7
2019-05-07T02:15:02.769Z,6.7
2019-05-07T02:20:02.581Z,6.7
2019-05-07T02:25:03.275Z,6.7
2019-05-07T02:30:04.042Z,6.7
2019-05-07T02:35:03.944Z,6.7
2019-05-07T02:40:04.405Z,6.8
2019-05-07T02:45:03.959Z,6.7
2019-05-07T02:50:02.994Z,6.7
2019-05-07T02:55:03.834Z,6.7
2019-05-07T03:00:04.395Z,6.7
2019-05-07T03:05:04.815Z,6.6
2019-05-07T03:10:03.430Z,6.6
2019-05-07T03:15:04.418Z,6.6
2019-05-07T03:20:03.244Z,6.6
2019-05-07T03:25:03.234Z,6.6
2019-05-07T03:30:04.440Z,6.6
2019-05-07T03:35:06.491Z,6.5
2019-05-07T03:40:03.755Z,6.5
2019-05-07T03:45:03.589Z,6.5
2019-05-07T03:50:03.196Z,6.4
2019-05-07T03:55:03.806Z,6.5
2019-05-07T04:00:04.158Z,6.5
2019-05-07T04:05:04.177Z,6.5
2019-05-07T04:10:04.313Z,6.5
2019-05-07T04:15:06.663Z,6.5
2019-05-07T04:20:04.370Z,6.5
2019-05-07T04:25:04.304Z,6.5
2019-05-07T04:30:03.908Z,6.5
2019-05-07T04:35:03.814Z,6.5
2019-05-07T04:40:03.077Z,6.5
2019-05-07T04:45:04.129Z,6.5
2019-05-07T04:50:08.953Z,6.5
2019-05-07T04:55:03.963Z,6.6
2019-05-07T05:00:03.771Z,6.5
2019-05-07T05:05:03.234Z,6.5
2019-05-07T05:10:03.383Z,6.5
2019-05-07T05:15:02.260Z,6.5
2019-05-07T05:20:03.753Z,6.5
2019-05-07T05:25:02.539Z,6.5
2019-05-07T05:30:03.052Z,6.5
2019-05-07T05:35:03.288Z,6.5
2019-05-07T05:40:06.049Z,6.6
2019-05-07T05:45:02.589Z,6.5
2019-05-07T05:50:02.046Z,6.5
2019-05-07T05:55:09.019Z,6.6
2019-05-07T06:00:02.565Z,6.6
2019-05-07T06:05:02.235Z,6.6
2019-05-07T06:10:13.003Z,6.6
2019-05-07T06:15:01.927Z,6.7
2019-05-07T06:20:03.179Z,6.8
2019-05-07T06:25:04.304Z,6.9
2019-05-07T06:30:08.513Z,6.9
2019-05-07T06:35:03.069Z,6.9
2019-05-07T06:40:02.591Z,7
2019-05-07T06:45:04.878Z,7.1
2019-05-07T06:50:03.114Z,7.1
2019-05-07T06:55:03.311Z,7.2
2019-05-07T07:00:02.667Z,7.2
2019-05-07T07:05:03.471Z,7.3
2019-05-07T07:10:02.747Z,7.4
2019-05-07T07:15:03.308Z,7.5
2019-05-07T07:20:02.196Z,7.7
2019-05-07T07:25:06.386Z,7.7
2019-05-07T07:30:02.359Z,7.9
2019-05-07T07:35:02.607Z,8
2019-05-07T07:40:02.176Z,8.1
2019-05-07T07:45:02.977Z,8.2
2019-05-07T07:50:02.375Z,8.1
2019-05-07T07:55:03.939Z,8.2
2019-05-07T08:00:02.624Z,8.2
2019-05-07T08:05:02.064Z,8.2
2019-05-07T08:10:02.722Z,8.3
2019-05-07T08:15:14.331Z,8.3
2019-05-07T08:20:02.503Z,8.4
2019-05-07T08:25:02.248Z,8.5
2019-05-07T08:30:02.915Z,8.5
2019-05-07T08:35:02.435Z,8.6
2019-05-07T08:40:03.027Z,8.6
2019-05-07T08:45:02.987Z,8.6
2019-05-07T08:50:02.819Z,8.6
2019-05-07T08:55:02.687Z,8.6
2019-05-07T09:00:04.531Z,8.7
2019-05-07T09:05:13.471Z,9.1
2019-05-07T09:10:02.572Z,9.1
2019-05-07T09:15:02.143Z,9.2
2019-05-07T09:20:02.658Z,9.4
2019-05-07T09:25:03.030Z,9.5
2019-05-07T09:30:02.744Z,9.4
2019-05-07T09:35:02.244Z,9.4
2019-05-07T09:40:03.058Z,9.3
2019-05-07T09:45:01.968Z,9.4
2019-05-07T09:50:07.120Z,9.4
2019-05-07T09:55:06.678Z,9.5
2019-05-07T10:00:03.096Z,9.6
2019-05-07T10:05:02.505Z,9.8
2019-05-07T10:10:03.113Z,9.8
2019-05-07T10:15:03.023Z,9.8
2019-05-07T10:20:03.177Z,9.9
2019-05-07T10:25:02.783Z,10.1
2019-05-07T10:30:02.295Z,10.4
2019-05-07T10:35:02.420Z,10.4
2019-05-07T10:40:02.999Z,10.3
2019-05-07T10:45:03.130Z,10.4
2019-05-07T10:50:02.847Z,10.4
2019-05-07T10:55:05.357Z,10.6
2019-05-07T11:00:03.146Z,10.6
2019-05-07T11:05:03.309Z,10.8
2019-05-07T11:10:02.248Z,10.7
2019-05-07T11:15:02.144Z,10.6
2019-05-07T11:20:03.171Z,10.6
2019-05-07T11:25:02.993Z,10.6
2019-05-07T11:30:02.668Z,10.6
2019-05-07T11:35:03.076Z,10.7
2019-05-07T11:40:03.149Z,10.9
2019-05-07T11:45:02.696Z,11.3
2019-05-07T11:50:03.164Z,11.4
2019-05-07T11:55:03.110Z,11.5
2019-05-07T12:00:02.734Z,11.5
2019-05-07T12:05:07.747Z,11.6
2019-05-07T12:10:04.712Z,11.6
2019-05-07T12:15:06.427Z,11.7
2019-05-07T12:20:02.426Z,11.7
2019-05-07T12:25:03.179Z,11.6
2019-05-07T12:30:02.038Z,11.7
2019-05-07T12:35:03.310Z,11.8
2019-05-07T12:40:02.012Z,12
2019-05-07T12:45:02.709Z,12.1
2019-05-07T12:50:01.878Z,12.4
2019-05-07T12:55:11.882Z,12.9
2019-05-07T13:00:02.170Z,12.9
2019-05-07T13:05:05.269Z,13.1
2019-05-07T13:10:02.560Z,13.1
2019-05-07T13:15:03.390Z,13.4
2019-05-07T13:20:02.030Z,13.6
2019-05-07T13:25:05.736Z,13.5
2019-05-07T13:30:02.516Z,13.5
2019-05-07T13:35:02.735Z,14.2
2019-05-07T13:40:02.653Z,14.5
2019-05-07T13:45:02.854Z,14
2019-05-07T13:50:02.525Z,13.6
2019-05-07T13:55:02.869Z,13.3
2019-05-07T14:00:04.822Z,13.1
2019-05-07T14:05:03.312Z,13.2
2019-05-07T14:10:02.361Z,13.5
2019-05-07T14:15:02.123Z,13.2
2019-05-07T14:20:04.845Z,13
2019-05-07T14:25:01.786Z,12.8
2019-05-07T14:30:03.192Z,12.6
2019-05-07T14:35:02.179Z,12.9
2019-05-07T14:40:05.763Z,13.1
2019-05-07T14:45:01.947Z,13.1
2019-05-07T14:50:02.060Z,13.1
2019-05-07T14:55:04.887Z,13
2019-05-07T15:00:03.230Z,13
2019-05-07T15:05:02.867Z,13
2019-05-07T15:10:02.298Z,13.1
2019-05-07T15:15:03.300Z,13.2
2019-05-07T15:20:02.730Z,13.2
2019-05-07T15:25:02.857Z,13.1
2019-05-07T15:30:02.445Z,13
2019-05-07T15:35:02.264Z,13.1
2019-05-07T15:40:02.681Z,13
2019-05-07T15:45:02.239Z,13
2019-05-07T15:50:04.880Z,12.9
2019-05-07T15:55:02.701Z,12.9
2019-05-07T16:00:02.421Z,12.8
2019-05-07T16:05:02.141Z,13
2019-05-07T16:10:02.648Z,13.3
2019-05-07T16:15:03.125Z,13.5
2019-05-07T16:20:03.104Z,13.5
2019-05-07T16:25:05.280Z,13.8
2019-05-07T16:30:01.563Z,14
2019-05-07T16:35:05.411Z,14.1
2019-05-07T16:40:04.497Z,14.2
2019-05-07T16:45:02.848Z,14
2019-05-07T16:50:04.151Z,13.9
2019-05-07T16:55:03.094Z,13.8
2019-05-07T17:00:02.826Z,13.5
2019-05-07T17:05:03.440Z,13.4
2019-05-07T17:10:02.689Z,13.4
2019-05-07T17:15:05.760Z,13.4
2019-05-07T17:20:02.680Z,13.4
2019-05-07T17:25:03.185Z,13.2
2019-05-07T17:30:02.894Z,13.1
2019-05-07T17:35:02.702Z,13
2019-05-07T17:40:04.402Z,12.7
2019-05-07T17:45:05.377Z,12.5
2019-05-07T17:50:02.160Z,12.6
2019-05-07T17:55:05.798Z,12.3
2019-05-07T18:00:02.283Z,12.3
2019-05-07T18:05:08.387Z,12
2019-05-07T18:10:02.417Z,12
2019-05-07T18:15:08.430Z,11.8
2019-05-07T18:20:02.462Z,11.7
2019-05-07T18:25:01.814Z,11.7
2019-05-07T18:30:02.744Z,11.6
2019-05-07T18:35:02.305Z,11.4
2019-05-07T18:40:05.173Z,11.1
2019-05-07T18:45:02.214Z,11.1
2019-05-07T18:50:02.821Z,10.9
2019-05-07T18:55:02.790Z,10.8
2019-05-07T19:00:04.622Z,10.7
2019-05-07T19:05:03.249Z,10.6
2019-05-07T19:10:02.710Z,10.4
2019-05-07T19:15:02.865Z,10.2
2019-05-07T19:20:03.338Z,10
2019-05-07T19:25:02.948Z,9.8
2019-05-07T19:30:05.694Z,9.5
2019-05-07T19:35:01.816Z,9.5
2019-05-07T19:40:03.468Z,9.4
2019-05-07T19:45:02.610Z,9.2
2019-05-07T19:50:03.246Z,9.1
2019-05-07T19:55:04.677Z,8.9
2019-05-07T20:00:01.368Z,8.8
2019-05-07T20:05:03.457Z,8.7
2019-05-07T20:10:02.640Z,8.6
2019-05-07T20:15:04.898Z,8.4
2019-05-07T20:20:03.047Z,8.4
2019-05-07T20:25:15.055Z,8.3
2019-05-07T20:30:03.088Z,8.2
2019-05-07T20:35:02.778Z,8.1
2019-05-07T20:40:02.943Z,8
2019-05-07T20:45:03.082Z,7.9
2019-05-07T20:50:04.531Z,7.7
2019-05-07T20:55:02.726Z,7.7
2019-05-07T21:00:02.734Z,7.6
2019-05-07T21:05:05.150Z,7.5
2019-05-07T21:10:02.183Z,7.5
2019-05-07T21:15:03.389Z,7.4
2019-05-07T21:20:02.024Z,7.3
2019-05-07T21:25:03.236Z,7.2
2019-05-07T21:30:02.428Z,7.2
2019-05-07T21:35:02.569Z,7.1
2019-05-07T21:40:02.541Z,7
2019-05-07T21:45:03.372Z,7
2019-05-07T21:50:02.899Z,6.9
2019-05-07T21:55:02.713Z,6.8
2019-05-07T22:00:02.164Z,6.7
2019-05-07T22:05:02.655Z,6.7
2019-05-07T22:10:02.170Z,6.6
2019-05-07T22:15:04.082Z,6.5
2019-05-07T22:20:02.972Z,6.4
2019-05-07T22:25:05.196Z,6.2
2019-05-07T22:30:02.198Z,6.1
2019-05-07T22:35:02.916Z,6.1
2019-05-07T22:40:02.731Z,6.1
2019-05-07T22:45:02.749Z,6
2019-05-07T22:50:02.737Z,6
2019-05-07T22:55:03.270Z,5.9
2019-05-07T23:00:04.868Z,5.7
2019-05-07T23:05:02.819Z,5.7
2019-05-07T23:10:02.981Z,5.7
2019-05-07T23:15:02.680Z,5.6
2019-05-07T23:20:02.229Z,5.6
2019-05-07T23:25:01.456Z,5.6
2019-05-07T23:30:02.738Z,5.6
2019-05-07T23:35:01.996Z,5.6
2019-05-07T23:40:03.109Z,5.5
2019-05-07T23:45:02.165Z,5.4
2019-05-07T23:50:02.001Z,5.2
2019-05-07T23:55:02.899Z,5.1
